Time;durP1;ratioP1;P1;durP2;ratioP2;P2;SDS_P1;SDS_P2;PMS_P1;PMS_P2;Temp;Humidity;BMP_temperature;BMP_pressure;BME280_temperature;BME280_humidity;BME280_pressure;Samples;Min_cycle;Max_cycle;Signal;HPM_P1;HPM_P2
2021/05/06 00:09:43;;;;;;;3.43;1.80;;;6.00;99.90;;;;;;5062159;28;20198;-78
2021/05/06 00:31:51;;;;;;;6.23;2.43;;;6.00;99.90;;;;;;5061595;28;20244;-77
2021/05/06 00:34:17;;;;;;;4.30;1.93;;;6.00;99.90;;;;;;5061860;27;20359;-79
2021/05/06 00:36:44;;;;;;;3.07;1.63;;;6.00;99.90;;;;;;5061322;28;20223;-79
2021/05/06 00:39:13;;;;;;;7.67;1.90;;;6.00;99.90;;;;;;5061871;27;20204;-79
2021/05/06 00:41:48;;;;;;;3.10;1.70;;;6.00;99.90;;;;;;5061809;27;20216;-79
2021/05/06 00:55:43;;;;;;;7.53;1.87;;;5.80;99.90;;;;;;5005800;28;20193;-79
2021/05/06 00:58:32;;;;;;;9.47;1.93;;;5.80;99.90;;;;;;5033914;28;20236;-79
2021/05/06 01:01:19;;;;;;;7.50;1.90;;;5.80;99.90;;;;;;5047670;28;20581;-77
2021/05/06 01:03:58;;;;;;;4.10;1.73;;;5.70;99.90;;;;;;5048006;27;20284;-80
2021/05/06 01:06:26;;;;;;;4.80;1.53;;;5.80;99.90;;;;;;5047754;28;20654;-79
2021/05/06 01:08:55;;;;;;;4.57;1.70;;;5.80;99.90;;;;;;5048039;28;20215;-80
2021/05/06 01:11:27;;;;;;;4.77;1.80;;;5.70;99.90;;;;;;5048061;27;20268;-80
2021/05/06 01:13:53;;;;;;;4.70;1.60;;;5.70;99.90;;;;;;5048670;27;20679;-80
2021/05/06 01:16:20;;;;;;;3.53;1.50;;;5.70;99.90;;;;;;5047759;28;20208;-77
2021/05/06 01:18:47;;;;;;;7.63;2.20;;;5.60;99.90;;;;;;5047516;28;20319;-76
2021/05/06 01:21:14;;;;;;;4.27;1.87;;;5.60;99.90;;;;;;5047663;28;20611;-76
2021/05/06 01:23:43;;;;;;;5.90;1.83;;;5.50;99.90;;;;;;5047391;28;20216;-75
2021/05/06 01:26:15;;;;;;;5.97;1.80;;;5.60;99.90;;;;;;5047723;27;20212;-76
2021/05/06 01:28:44;;;;;;;3.63;1.40;;;5.60;99.90;;;;;;5047854;27;20227;-76
2021/05/06 01:31:14;;;;;;;2.30;1.43;;;5.60;99.90;;;;;;5047617;27;20215;-77
2021/05/06 01:33:44;;;;;;;3.33;2.00;;;5.70;99.90;;;;;;5047051;28;20777;-76
2021/05/06 01:36:15;;;;;;;5.23;1.60;;;5.60;99.90;;;;;;5046811;28;20682;-78
2021/05/06 01:38:59;;;;;;;5.23;1.60;;;5.60;99.90;;;;;;5046682;28;20316;-78
2021/05/06 01:41:40;;;;;;;3.47;1.40;;;5.60;99.90;;;;;;5047481;28;20238;-78
2021/05/06 01:44:09;;;;;;;7.43;2.03;;;5.50;99.90;;;;;;5047249;28;20252;-77
2021/05/06 01:47:06;;;;;;;5.33;2.00;;;5.50;99.90;;;;;;5047241;28;20209;-78
2021/05/06 01:58:02;;;;;;;4.57;1.90;;;5.30;99.90;;;;;;5046620;28;20238;-76
2021/05/06 02:00:30;;;;;;;6.10;2.00;;;5.30;99.90;;;;;;5045798;28;20195;-76
2021/05/06 02:02:58;;;;;;;4.87;2.10;;;5.30;99.90;;;;;;5046767;28;20204;-76
2021/05/06 02:05:24;;;;;;;5.27;2.23;;;5.30;99.90;;;;;;5046596;28;20219;-76
2021/05/06 02:07:50;;;;;;;5.07;1.90;;;5.30;99.90;;;;;;5046804;28;20219;-76
2021/05/06 02:10:20;;;;;;;4.43;1.37;;;5.30;99.90;;;;;;5047017;28;20621;-77
2021/05/06 02:12:46;;;;;;;5.60;1.93;;;5.30;99.90;;;;;;5046345;28;20673;-76
2021/05/06 02:15:16;;;;;;;3.43;1.67;;;5.30;99.90;;;;;;5046528;28;20200;-77
2021/05/06 02:17:43;;;;;;;6.37;2.00;;;5.30;99.90;;;;;;5046188;28;20697;-77
2021/05/06 02:20:11;;;;;;;7.53;1.80;;;5.20;99.90;;;;;;5046761;27;20232;-76
2021/05/06 02:22:37;;;;;;;4.97;2.10;;;5.20;99.90;;;;;;5046411;28;20211;-76
2021/05/06 02:25:05;;;;;;;6.77;2.10;;;5.20;99.90;;;;;;5046326;28;20684;-77
2021/05/06 02:27:32;;;;;;;6.10;2.10;;;5.20;99.90;;;;;;5046850;28;20582;-77
2021/05/06 02:29:58;;;;;;;5.33;1.77;;;5.20;99.90;;;;;;5046634;28;20813;-78
2021/05/06 02:32:25;;;;;;;3.30;1.93;;;5.20;99.90;;;;;;5046672;28;20224;-77
2021/05/06 02:34:51;;;;;;;4.77;1.70;;;5.20;99.90;;;;;;5046397;27;20215;-78
2021/05/06 02:37:18;;;;;;;3.37;1.93;;;5.20;99.90;;;;;;5045701;28;20265;-77
2021/05/06 02:39:45;;;;;;;4.70;1.67;;;5.20;99.90;;;;;;5046281;28;20206;-78
2021/05/06 02:42:12;;;;;;;4.60;2.00;;;5.30;99.90;;;;;;5046464;28;20222;-77
2021/05/06 02:44:39;;;;;;;4.50;1.80;;;5.20;99.90;;;;;;5046164;28;20206;-78
2021/05/06 02:47:06;;;;;;;2.17;1.67;;;5.20;99.90;;;;;;5047062;28;20227;-83
2021/05/06 02:49:33;;;;;;;6.20;2.33;;;5.10;99.90;;;;;;5048102;28;20208;-83
2021/05/06 02:52:04;;;;;;;8.73;2.07;;;5.10;99.90;;;;;;5047631;27;20222;-83
2021/05/06 02:54:36;;;;;;;2.83;1.70;;;5.10;99.90;;;;;;5047545;28;20196;-84
2021/05/06 02:57:08;;;;;;;5.13;1.83;;;5.10;99.90;;;;;;5047262;28;20220;-82
2021/05/06 03:02:43;;;;;;;3.07;1.63;;;5.10;99.90;;;;;;5047012;28;20295;-76
2021/05/06 03:05:11;;;;;;;5.17;1.80;;;5.10;99.90;;;;;;5036296;28;20195;-75
2021/05/06 03:07:40;;;;;;;5.33;1.90;;;5.00;99.90;;;;;;5040931;28;20221;-78
2021/05/06 03:10:15;;;;;;;6.53;1.90;;;5.00;99.90;;;;;;5045657;27;20249;-77
2021/05/06 03:13:01;;;;;;;4.43;1.77;;;5.00;99.90;;;;;;5042503;28;20206;-79
2021/05/06 03:21:18;;;;;;;6.70;1.90;;;5.10;99.90;;;;;;5041828;28;20563;-76
2021/05/06 03:23:47;;;;;;;5.60;1.43;;;5.00;99.90;;;;;;5041515;28;20626;-77
2021/05/06 03:26:14;;;;;;;8.73;1.90;;;5.00;99.90;;;;;;5041813;28;20208;-77
2021/05/06 03:28:44;;;;;;;3.20;1.40;;;4.90;99.90;;;;;;5041952;28;20274;-84
2021/05/06 03:31:22;;;;;;;6.53;2.20;;;5.00;99.90;;;;;;5043345;27;20200;-84
2021/05/06 03:42:04;;;;;;;2.03;1.73;;;5.00;99.90;;;;;;5041611;28;20195;-77
2021/05/06 03:44:44;;;;;;;5.97;1.97;;;5.00;99.90;;;;;;5041284;28;20677;-77
2021/05/06 04:18:01;;;;;;;3.80;1.43;;;4.90;99.90;;;;;;5032159;28;20229;-76
2021/05/06 04:26:04;;;;;;;4.83;2.10;;;5.10;99.90;;;;;;5040667;28;20203;-76
2021/05/06 04:36:48;;;;;;;3.23;1.57;;;5.20;99.90;;;;;;5035862;28;20242;-77
2021/05/06 04:39:24;;;;;;;3.80;2.00;;;5.20;99.90;;;;;;5037992;28;20204;-77
2021/05/06 04:41:56;;;;;;;4.13;2.37;;;5.10;99.90;;;;;;5033018;28;20208;-76
2021/05/06 04:55:30;;;;;;;3.60;1.67;;;5.40;99.90;;;;;;5051451;27;20196;-77
2021/05/06 04:58:06;;;;;;;3.73;1.97;;;5.50;99.90;;;;;;5037705;27;20231;-75
2021/05/06 05:06:00;;;;;;;6.83;2.03;;;5.70;99.90;;;;;;5034696;28;20198;-77
2021/05/06 05:08:29;;;;;;;7.50;2.10;;;5.70;99.90;;;;;;5035628;28;20201;-76
2021/05/06 05:13:49;;;;;;;2.93;1.80;;;5.70;99.90;;;;;;5027503;28;20572;-77
2021/05/06 05:24:29;;;;;;;6.40;2.07;;;5.90;99.90;;;;;;5035186;28;20201;-77
2021/05/06 05:26:56;;;;;;;2.27;1.20;;;5.90;99.90;;;;;;5041341;28;20241;-77
2021/05/06 05:29:22;;;;;;;4.67;1.70;;;6.00;99.90;;;;;;5044102;28;20200;-76
2021/05/06 05:31:48;;;;;;;5.87;2.27;;;6.00;99.90;;;;;;5034466;28;20204;-76
2021/05/06 05:34:25;;;;;;;4.93;1.87;;;6.00;99.90;;;;;;5033204;28;20220;-77
2021/05/06 05:36:53;;;;;;;6.47;2.03;;;6.10;99.90;;;;;;5042758;28;20232;-76
2021/05/06 05:39:25;;;;;;;4.53;1.80;;;6.10;99.90;;;;;;5029177;28;20729;-76
2021/05/06 05:42:09;;;;;;;2.23;1.67;;;6.10;99.90;;;;;;5032236;28;20201;-76
2021/05/06 05:45:13;;;;;;;6.53;1.80;;;6.10;99.90;;;;;;5031781;28;20197;-76
2021/05/06 05:48:13;;;;;;;3.80;1.90;;;6.20;99.90;;;;;;5029081;28;20622;-77
2021/05/06 05:56:04;;;;;;;5.37;1.97;;;6.60;99.90;;;;;;5047128;28;20192;-77
2021/05/06 05:58:31;;;;;;;4.63;2.10;;;6.60;99.90;;;;;;5046857;28;20284;-77
2021/05/06 06:00:58;;;;;;;6.40;1.80;;;6.50;99.90;;;;;;5045422;28;20208;-77
2021/05/06 06:03:24;;;;;;;6.03;2.07;;;6.50;99.90;;;;;;5046470;28;20624;-77
2021/05/06 06:05:53;;;;;;;3.70;1.77;;;6.60;99.90;;;;;;5037494;28;20197;-77
2021/05/06 06:08:22;;;;;;;5.27;1.90;;;6.60;99.90;;;;;;5037091;28;20662;-77
2021/05/06 06:10:48;;;;;;;8.20;2.50;;;6.60;99.90;;;;;;5033359;28;20211;-77
2021/05/06 06:13:14;;;;;;;4.97;1.70;;;6.60;99.90;;;;;;5026977;28;20258;-76
2021/05/06 06:15:51;;;;;;;7.07;2.10;;;6.60;99.90;;;;;;5026488;28;20228;-77
2021/05/06 06:18:22;;;;;;;4.23;1.90;;;6.60;99.90;;;;;;5026452;28;20277;-77
2021/05/06 06:20:56;;;;;;;5.67;2.00;;;6.70;99.90;;;;;;5026515;28;20246;-76
2021/05/06 06:23:22;;;;;;;7.00;1.93;;;6.70;99.90;;;;;;5026338;28;20568;-76
2021/05/06 06:25:48;;;;;;;2.40;1.50;;;6.70;99.90;;;;;;5026232;28;20269;-77
2021/05/06 06:28:15;;;;;;;6.70;2.20;;;6.70;99.90;;;;;;5026574;28;20205;-77
2021/05/06 06:30:41;;;;;;;5.47;2.13;;;6.70;99.90;;;;;;5026578;28;20228;-76
2021/05/06 06:33:07;;;;;;;4.77;1.93;;;6.90;99.90;;;;;;5026243;28;20315;-77
2021/05/06 06:35:35;;;;;;;4.40;2.07;;;6.90;99.90;;;;;;5028580;28;20709;-77
2021/05/06 06:38:04;;;;;;;5.67;2.00;;;7.00;99.90;;;;;;5025827;28;20248;-76
2021/05/06 06:40:30;;;;;;;3.77;1.73;;;7.00;99.90;;;;;;5026398;28;20551;-76
2021/05/06 06:42:56;;;;;;;5.03;1.57;;;7.10;99.90;;;;;;5026125;28;20234;-77
2021/05/06 06:45:22;;;;;;;6.70;2.20;;;7.10;99.90;;;;;;5025965;28;20826;-76
2021/05/06 06:47:53;;;;;;;6.10;2.17;;;7.10;99.90;;;;;;5045058;28;20204;-76
2021/05/06 06:50:20;;;;;;;3.93;1.90;;;7.20;99.90;;;;;;5046071;28;20216;-76
2021/05/06 06:52:47;;;;;;;5.07;1.67;;;7.20;99.90;;;;;;5036746;28;20201;-77
2021/05/06 06:55:13;;;;;;;3.03;1.73;;;7.20;99.90;;;;;;5036006;28;20236;-76
2021/05/06 06:57:39;;;;;;;3.23;1.90;;;7.20;99.90;;;;;;5030467;28;20220;-77
2021/05/06 07:00:07;;;;;;;6.40;1.90;;;7.20;99.90;;;;;;5034648;28;20201;-74
2021/05/06 07:02:35;;;;;;;4.90;1.80;;;7.30;99.90;;;;;;5034003;28;20296;-74
2021/05/06 07:05:05;;;;;;;5.47;1.80;;;7.30;99.90;;;;;;5033015;28;20949;-74
2021/05/06 07:07:31;;;;;;;4.80;1.77;;;7.30;99.90;;;;;;5025558;28;20223;-77
2021/05/06 07:09:58;;;;;;;6.07;1.77;;;7.40;99.90;;;;;;5024946;28;20611;-77
2021/05/06 07:12:24;;;;;;;3.47;1.87;;;7.50;99.90;;;;;;5025215;28;20212;-76
2021/05/06 07:14:50;;;;;;;4.33;1.80;;;7.60;99.90;;;;;;5025175;28;20754;-77
2021/05/06 07:17:16;;;;;;;7.83;2.03;;;7.60;99.90;;;;;;5025030;28;20209;-76
2021/05/06 07:19:43;;;;;;;3.43;1.90;;;7.50;99.90;;;;;;5025045;28;20216;-77
2021/05/06 07:22:09;;;;;;;2.73;1.93;;;7.50;99.90;;;;;;5024754;28;20209;-76
2021/05/06 07:24:35;;;;;;;6.77;1.80;;;7.60;99.90;;;;;;5026472;28;20205;-77
2021/05/06 07:27:03;;;;;;;5.73;1.93;;;7.60;99.90;;;;;;5033358;28;20269;-84
2021/05/06 07:29:29;;;;;;;3.50;2.33;;;7.60;99.90;;;;;;5028956;28;20228;-82
2021/05/06 07:31:55;;;;;;;7.73;1.87;;;7.70;99.90;;;;;;5034967;28;20220;-76
2021/05/06 07:34:21;;;;;;;6.60;2.20;;;7.80;99.90;;;;;;5034634;28;20209;-77
2021/05/06 07:36:47;;;;;;;3.43;1.67;;;7.70;99.90;;;;;;5032543;28;20235;-77
2021/05/06 07:39:14;;;;;;;8.93;2.33;;;7.70;99.90;;;;;;5035191;28;20219;-77
2021/05/06 07:41:40;;;;;;;4.70;1.63;;;7.70;99.90;;;;;;5033799;28;20212;-77
2021/05/06 07:44:07;;;;;;;4.03;2.03;;;7.80;99.90;;;;;;5035249;28;20613;-77
2021/05/06 07:46:33;;;;;;;5.10;1.60;;;7.80;99.90;;;;;;5031895;28;20197;-77
2021/05/06 07:49:00;;;;;;;3.67;1.63;;;7.90;99.90;;;;;;5033784;28;20209;-77
2021/05/06 07:51:26;;;;;;;2.97;1.57;;;8.00;99.90;;;;;;5038620;28;20249;-77
2021/05/06 07:53:54;;;;;;;4.77;1.70;;;8.00;99.90;;;;;;5035461;28;20204;-77
2021/05/06 07:56:20;;;;;;;4.87;2.13;;;7.90;99.90;;;;;;5034263;28;20232;-77
2021/05/06 07:58:47;;;;;;;5.37;1.87;;;7.80;99.90;;;;;;5033738;28;20239;-77
2021/05/06 08:01:15;;;;;;;6.87;1.90;;;7.70;99.90;;;;;;5033422;28;20208;-77
2021/05/06 08:03:41;;;;;;;3.10;1.57;;;7.90;99.90;;;;;;5038690;28;20263;-77
2021/05/06 08:06:08;;;;;;;6.43;1.70;;;8.00;99.90;;;;;;5036323;28;20197;-78
2021/05/06 08:08:34;;;;;;;3.50;1.97;;;8.10;99.90;;;;;;5036734;28;20208;-77
2021/05/06 08:11:00;;;;;;;5.10;1.53;;;8.20;99.90;;;;;;5037750;28;20201;-77
2021/05/06 08:13:28;;;;;;;6.37;2.30;;;8.30;99.90;;;;;;5036419;28;20665;-77
2021/05/06 08:15:55;;;;;;;4.50;1.93;;;8.40;99.90;;;;;;5036164;28;20224;-77
2021/05/06 08:18:22;;;;;;;4.70;1.80;;;8.50;99.90;;;;;;5040203;28;20229;-77
2021/05/06 08:20:48;;;;;;;3.60;2.10;;;8.60;99.90;;;;;;5039174;28;20205;-77
2021/05/06 08:23:14;;;;;;;4.83;1.90;;;8.50;99.90;;;;;;5041905;28;20574;-77
2021/05/06 08:25:41;;;;;;;6.80;2.50;;;8.50;99.90;;;;;;5040375;28;20211;-78
2021/05/06 08:28:08;;;;;;;3.97;1.93;;;8.50;99.90;;;;;;5035443;28;20216;-77
2021/05/06 08:30:34;;;;;;;3.07;1.70;;;8.50;99.90;;;;;;5038960;28;20682;-77
2021/05/06 08:33:01;;;;;;;7.07;2.00;;;8.40;99.90;;;;;;5037475;27;20274;-77
2021/05/06 08:35:28;;;;;;;5.03;2.00;;;8.50;99.90;;;;;;5040702;28;20252;-77
2021/05/06 08:37:54;;;;;;;2.63;1.87;;;8.60;99.90;;;;;;5035862;28;20249;-76
2021/05/06 08:40:21;;;;;;;2.40;1.80;;;8.60;99.90;;;;;;5037358;28;20619;-72
2021/05/06 08:42:50;;;;;;;4.80;2.70;;;8.80;99.90;;;;;;5036721;28;20204;-72
2021/05/06 08:45:17;;;;;;;4.60;2.30;;;8.90;99.90;;;;;;5034667;28;20711;-77
2021/05/06 08:47:45;;;;;;;5.00;2.20;;;8.80;99.90;;;;;;5047211;28;20216;-76
2021/05/06 08:50:11;;;;;;;3.97;2.10;;;8.70;99.90;;;;;;5044449;28;20255;-76
2021/05/06 08:52:40;;;;;;;3.03;2.20;;;8.70;99.90;;;;;;5027318;28;20215;-77
2021/05/06 08:55:07;;;;;;;3.57;2.03;;;8.70;99.90;;;;;;5030396;28;20291;-77
2021/05/06 08:57:34;;;;;;;5.10;2.57;;;8.80;99.90;;;;;;5029967;28;20201;-76
2021/05/06 09:00:00;;;;;;;3.57;2.77;;;8.80;99.90;;;;;;5034019;28;20200;-77
2021/05/06 09:02:26;;;;;;;5.30;2.70;;;8.80;99.90;;;;;;5044587;27;20577;-76
2021/05/06 09:04:52;;;;;;;2.73;2.53;;;8.80;99.90;;;;;;5046246;28;20670;-77
2021/05/06 09:07:20;;;;;;;3.80;2.90;;;8.90;99.90;;;;;;5032911;28;20715;-77
2021/05/06 09:09:49;;;;;;;3.60;3.00;;;9.00;99.90;;;;;;5035994;28;20205;-77
2021/05/06 09:12:17;;;;;;;4.47;3.20;;;9.00;99.90;;;;;;5032551;28;20204;-77
2021/05/06 09:14:45;;;;;;;4.23;3.13;;;8.90;99.90;;;;;;5033873;28;20243;-77
2021/05/06 09:17:25;;;;;;;5.30;3.10;;;8.90;99.90;;;;;;5030292;28;20258;-77
2021/05/06 09:19:56;;;;;;;4.50;3.50;;;8.80;99.90;;;;;;5041065;28;20211;-77
2021/05/06 09:22:32;;;;;;;3.90;3.30;;;8.80;99.90;;;;;;5036268;28;20837;-77
2021/05/06 09:25:37;;;;;;;7.27;3.50;;;8.80;99.90;;;;;;5035273;28;20200;-77
2021/05/06 09:28:12;;;;;;;4.93;4.17;;;8.80;99.90;;;;;;5036479;28;20596;-77
2021/05/06 09:30:49;;;;;;;3.10;2.70;;;8.80;99.90;;;;;;5036221;28;20201;-77
2021/05/06 09:33:16;;;;;;;3.90;3.50;;;8.90;99.90;;;;;;5026118;28;20227;-77
2021/05/06 09:35:44;;;;;;;5.53;3.53;;;9.00;99.90;;;;;;5026211;28;20205;-77
2021/05/06 09:38:30;;;;;;;6.77;4.07;;;9.10;99.90;;;;;;5025766;28;20301;-77
2021/05/06 09:41:01;;;;;;;4.20;3.90;;;9.10;99.90;;;;;;5026300;28;20224;-77
2021/05/06 09:43:30;;;;;;;4.63;4.10;;;9.00;99.90;;;;;;5026008;28;20284;-77
2021/05/06 09:45:57;;;;;;;4.40;4.10;;;8.90;99.90;;;;;;5025876;28;20582;-77
2021/05/06 09:48:23;;;;;;;4.10;3.80;;;8.80;99.90;;;;;;5026500;28;20223;-77
2021/05/06 09:50:52;;;;;;;4.43;4.03;;;8.70;99.90;;;;;;5025987;28;20823;-77
2021/05/06 09:53:21;;;;;;;4.20;3.90;;;8.70;99.90;;;;;;5025586;28;20197;-77
2021/05/06 09:55:48;;;;;;;5.17;4.30;;;8.80;99.90;;;;;;5025530;28;20208;-77
2021/05/06 09:58:17;;;;;;;3.83;3.47;;;8.70;99.90;;;;;;5029452;28;20233;-77
2021/05/06 10:00:44;;;;;;;4.53;3.83;;;8.70;99.90;;;;;;5033902;27;20216;-77
2021/05/06 10:03:12;;;;;;;4.30;3.90;;;8.70;99.90;;;;;;5033220;28;20662;-77
2021/05/06 10:05:39;;;;;;;4.87;4.43;;;8.80;99.90;;;;;;5034186;28;20201;-76
2021/05/06 10:08:05;;;;;;;4.97;4.40;;;8.70;99.90;;;;;;5036317;28;20257;-76
2021/05/06 10:10:33;;;;;;;5.00;4.60;;;8.70;99.90;;;;;;5034272;28;20552;-76
2021/05/06 10:13:01;;;;;;;6.07;4.90;;;8.70;99.90;;;;;;5031034;28;20232;-77
2021/05/06 10:15:28;;;;;;;5.33;4.83;;;8.60;99.90;;;;;;5033507;28;20721;-76
2021/05/06 10:17:55;;;;;;;5.20;4.80;;;8.60;99.90;;;;;;5031945;28;20224;-77
2021/05/06 10:20:24;;;;;;;5.47;4.97;;;8.50;99.90;;;;;;5033788;28;20585;-77
2021/05/06 10:22:51;;;;;;;6.17;5.17;;;8.40;99.90;;;;;;5029951;28;20204;-77
2021/05/06 10:25:20;;;;;;;5.97;5.33;;;8.40;99.90;;;;;;5036186;28;20201;-77
2021/05/06 10:27:46;;;;;;;5.33;4.93;;;8.40;99.90;;;;;;5036274;28;20284;-78
2021/05/06 10:30:14;;;;;;;6.20;4.90;;;8.50;99.90;;;;;;5031130;28;20205;-77
2021/05/06 10:32:43;;;;;;;5.87;5.00;;;8.40;99.90;;;;;;5039656;28;20229;-77
2021/05/06 10:35:11;;;;;;;6.23;4.83;;;8.40;99.90;;;;;;5036930;28;20241;-77
2021/05/06 10:37:40;;;;;;;5.53;4.87;;;8.50;99.90;;;;;;5024704;28;20232;-77
2021/05/06 10:40:29;;;;;;;8.03;4.80;;;8.50;99.90;;;;;;5025531;28;20197;-77
2021/05/06 10:42:56;;;;;;;5.93;4.60;;;8.50;99.90;;;;;;5033052;28;20383;-77
2021/05/06 10:45:33;;;;;;;4.90;4.50;;;8.60;99.90;;;;;;5032828;28;20685;-77
2021/05/06 10:48:02;;;;;;;4.67;4.20;;;8.40;99.90;;;;;;5029923;28;20750;-77
2021/05/06 10:50:36;;;;;;;4.67;4.37;;;8.70;99.90;;;;;;5036488;28;20693;-77
2021/05/06 10:53:04;;;;;;;4.63;4.23;;;8.90;99.90;;;;;;5037668;28;20204;-77
2021/05/06 10:55:51;;;;;;;4.83;4.53;;;9.10;99.90;;;;;;5033377;28;20204;-76
2021/05/06 10:58:38;;;;;;;5.13;3.90;;;9.50;99.90;;;;;;5027900;28;20220;-77
2021/05/06 11:01:23;;;;;;;4.67;4.27;;;9.80;99.90;;;;;;5037762;28;20622;-77
2021/05/06 11:04:10;;;;;;;5.10;4.60;;;10.00;99.90;;;;;;5044295;28;20648;-77
2021/05/06 11:06:38;;;;;;;4.83;4.43;;;10.40;99.90;;;;;;5045284;28;20219;-78
2021/05/06 11:09:38;;;;;;;3.50;3.20;;;10.60;99.90;;;;;;5045117;28;20217;-78
2021/05/06 11:12:18;;;;;;;4.37;3.97;;;10.90;99.90;;;;;;5040720;28;20196;-72
2021/05/06 11:15:27;;;;;;;3.50;3.30;;;11.20;99.90;;;;;;5033328;28;20195;-72
2021/05/06 11:17:54;;;;;;;4.20;3.80;;;11.60;99.90;;;;;;5036676;28;20232;-77
2021/05/06 11:20:45;;;;;;;3.63;3.33;;;11.70;99.90;;;;;;5041269;28;20576;-77
2021/05/06 11:23:26;;;;;;;3.87;3.67;;;12.00;99.90;;;;;;5034796;28;20196;-77
2021/05/06 11:26:01;;;;;;;4.17;3.77;;;11.90;99.90;;;;;;5033807;28;20280;-77
2021/05/06 11:28:50;;;;;;;3.80;3.50;;;11.70;99.90;;;;;;5024020;28;20189;-77
2021/05/06 11:31:36;;;;;;;3.30;3.10;;;11.60;99.90;;;;;;5023835;28;20201;-77
2021/05/06 11:34:30;;;;;;;3.70;3.40;;;11.50;99.90;;;;;;5030118;28;20225;-77
2021/05/06 11:37:21;;;;;;;3.50;3.30;;;11.10;99.90;;;;;;5023636;28;20594;-77
2021/05/06 11:39:56;;;;;;;4.00;3.70;;;10.90;99.90;;;;;;5023868;28;20694;-78
2021/05/06 11:42:24;;;;;;;3.87;3.60;;;10.70;99.90;;;;;;5024421;28;20196;-77
2021/05/06 11:45:13;;;;;;;4.17;3.87;;;10.60;99.90;;;;;;5024092;28;20213;-77
2021/05/06 11:47:40;;;;;;;4.33;4.03;;;10.60;99.90;;;;;;5023928;28;20667;-77
2021/05/06 11:50:24;;;;;;;3.83;3.53;;;10.50;99.90;;;;;;5034876;28;20574;-77
2021/05/06 11:52:52;;;;;;;4.10;3.80;;;10.50;99.90;;;;;;5032673;28;20242;-77
2021/05/06 11:55:33;;;;;;;4.50;4.20;;;10.60;99.90;;;;;;5035397;28;20238;-78
2021/05/06 11:58:00;;;;;;;5.33;4.93;;;10.80;99.90;;;;;;5036559;28;20307;-77
2021/05/06 12:00:28;;;;;;;5.40;4.80;;;11.00;99.90;;;;;;5044567;28;20208;-77
2021/05/06 12:02:57;;;;;;;5.00;4.57;;;11.00;99.90;;;;;;5044354;28;20212;-77
2021/05/06 12:05:23;;;;;;;4.73;4.43;;;10.60;99.90;;;;;;5044597;28;20205;-77
2021/05/06 12:08:03;;;;;;;4.70;4.30;;;10.60;99.90;;;;;;5044178;28;20295;-78
2021/05/06 12:10:29;;;;;;;4.07;3.87;;;10.70;99.90;;;;;;5036666;28;20569;-77
2021/05/06 12:13:02;;;;;;;3.37;3.17;;;10.70;99.90;;;;;;5033229;28;20197;-75
2021/05/06 12:15:28;;;;;;;3.20;3.00;;;10.80;99.90;;;;;;5032353;28;20579;-75
2021/05/06 12:18:19;;;;;;;2.90;2.70;;;10.80;99.90;;;;;;5029918;28;20205;-78
2021/05/06 12:20:54;;;;;;;3.07;2.87;;;10.80;99.90;;;;;;5023955;28;20197;-78
2021/05/06 12:23:21;;;;;;;4.10;2.73;;;10.70;99.90;;;;;;5023570;28;20667;-77
2021/05/06 12:25:48;;;;;;;3.03;2.73;;;10.70;99.90;;;;;;5023873;28;20720;-78
2021/05/06 12:28:14;;;;;;;2.90;2.60;;;10.70;99.90;;;;;;5023873;28;20254;-78
2021/05/06 12:30:40;;;;;;;2.90;2.70;;;10.80;99.90;;;;;;5023613;28;20319;-78
2021/05/06 12:33:07;;;;;;;2.90;2.60;;;10.90;99.90;;;;;;5023387;28;20589;-78
2021/05/06 12:35:47;;;;;;;3.07;2.87;;;11.00;99.90;;;;;;5023661;28;20201;-78
2021/05/06 12:38:14;;;;;;;2.70;2.50;;;10.90;99.90;;;;;;5032831;28;20254;-78
2021/05/06 12:40:41;;;;;;;2.70;2.60;;;10.90;99.90;;;;;;5035399;28;20205;-75
2021/05/06 12:43:26;;;;;;;2.70;2.50;;;11.20;99.90;;;;;;5029861;28;20201;-78
2021/05/06 12:46:05;;;;;;;2.87;2.60;;;11.40;99.90;;;;;;5035298;28;20204;-78
2021/05/06 12:48:39;;;;;;;2.40;2.30;;;11.50;99.90;;;;;;5027393;28;20207;-76
2021/05/06 12:51:06;;;;;;;3.07;2.87;;;11.50;99.90;;;;;;5027250;28;20197;-76
2021/05/06 12:53:33;;;;;;;2.60;2.50;;;11.40;99.90;;;;;;5026722;28;20208;-76
2021/05/06 12:56:01;;;;;;;2.80;2.60;;;11.40;99.90;;;;;;5026869;28;20205;-76
2021/05/06 12:58:28;;;;;;;2.90;2.60;;;11.20;99.90;;;;;;5026898;28;20228;-75
2021/05/06 13:01:14;;;;;;;2.20;2.10;;;11.10;99.90;;;;;;5026768;28;20220;-76
2021/05/06 13:03:43;;;;;;;2.20;2.10;;;11.40;99.90;;;;;;5026989;28;20201;-76
2021/05/06 13:06:10;;;;;;;2.17;2.07;;;11.50;99.90;;;;;;5026937;28;20197;-76
2021/05/06 13:08:37;;;;;;;2.30;2.20;;;11.90;99.90;;;;;;5026699;28;20224;-77
2021/05/06 13:11:06;;;;;;;2.47;2.37;;;11.90;99.90;;;;;;5032323;28;20219;-76
2021/05/06 13:13:38;;;;;;;2.40;2.30;;;12.10;99.90;;;;;;5032498;28;20220;-76
2021/05/06 13:16:05;;;;;;;2.27;2.10;;;12.30;99.90;;;;;;5037570;28;20211;-76
2021/05/06 13:18:32;;;;;;;1.97;1.87;;;12.50;99.90;;;;;;5034693;28;20705;-76
2021/05/06 13:20:58;;;;;;;1.70;1.60;;;12.50;98.80;;;;;;5037219;28;20200;-76
2021/05/06 13:23:28;;;;;;;2.63;2.43;;;12.50;98.90;;;;;;5034590;28;20228;-76
2021/05/06 13:25:56;;;;;;;2.40;2.20;;;12.80;99.20;;;;;;5033610;28;20258;-76
2021/05/06 13:28:42;;;;;;;1.90;1.80;;;12.80;98.40;;;;;;5035886;28;21389;-76
2021/05/06 13:31:11;;;;;;;2.07;1.97;;;12.60;97.80;;;;;;5026651;28;20185;-75
2021/05/06 13:33:38;;;;;;;1.87;1.77;;;12.50;97.60;;;;;;5026586;28;20205;-76
2021/05/06 13:36:06;;;;;;;2.10;2.00;;;12.80;98.20;;;;;;5026110;28;20662;-76
2021/05/06 13:38:52;;;;;;;1.70;1.60;;;12.90;96.80;;;;;;5026156;28;20706;-77
2021/05/06 13:41:21;;;;;;;2.00;1.90;;;12.90;97.10;;;;;;5026510;28;20265;-77
2021/05/06 13:43:48;;;;;;;2.30;2.20;;;13.10;96.80;;;;;;5025857;28;20206;-77
2021/05/06 13:46:15;;;;;;;2.97;2.47;;;13.00;97.10;;;;;;5025788;28;20205;-78
2021/05/06 13:48:41;;;;;;;1.90;1.80;;;12.90;97.40;;;;;;5034526;28;20743;-78
2021/05/06 13:51:09;;;;;;;1.97;1.87;;;12.70;96.50;;;;;;5033340;28;20238;-79
2021/05/06 13:53:36;;;;;;;2.07;1.97;;;12.30;96.70;;;;;;5039149;28;20200;-82
2021/05/06 13:56:03;;;;;;;1.90;1.80;;;12.10;97.50;;;;;;5046058;28;20209;-78
2021/05/06 13:58:29;;;;;;;1.80;1.70;;;12.10;97.00;;;;;;5046547;27;20236;-78
2021/05/06 14:00:56;;;;;;;2.00;1.90;;;12.30;96.90;;;;;;5047447;27;20294;-78
2021/05/06 14:03:22;;;;;;;2.17;1.97;;;12.30;96.90;;;;;;5060984;27;20207;-78
2021/05/06 14:05:49;;;;;;;2.60;1.90;;;12.30;96.90;;;;;;5046638;28;20205;-78
2021/05/06 14:08:15;;;;;;;2.13;2.03;;;12.40;96.20;;;;;;5037342;27;20227;-78
2021/05/06 14:10:41;;;;;;;1.80;1.60;;;12.40;96.70;;;;;;5039329;28;20208;-78
2021/05/06 14:13:08;;;;;;;4.00;2.73;;;12.40;97.10;;;;;;5037156;28;20698;-74
2021/05/06 14:15:34;;;;;;;1.70;1.70;;;12.60;97.60;;;;;;5032047;28;20205;-74
2021/05/06 14:18:02;;;;;;;2.10;2.00;;;12.70;97.20;;;;;;5032322;28;20208;-78
2021/05/06 14:20:28;;;;;;;2.60;1.90;;;13.10;96.60;;;;;;5037276;28;20210;-77
2021/05/06 14:22:54;;;;;;;1.93;1.83;;;13.40;94.60;;;;;;5046439;27;20200;-77
2021/05/06 14:25:20;;;;;;;2.10;2.00;;;13.40;94.50;;;;;;5046099;28;20211;-77
2021/05/06 14:27:46;;;;;;;1.43;1.43;;;13.40;94.00;;;;;;5046187;28;20615;-77
2021/05/06 14:30:14;;;;;;;1.87;1.77;;;13.50;94.50;;;;;;5046147;28;20236;-77
2021/05/06 14:32:40;;;;;;;2.23;1.73;;;13.30;93.20;;;;;;5043102;28;20224;-77
2021/05/06 14:35:08;;;;;;;1.70;1.67;;;13.60;93.90;;;;;;5025953;28;20620;-77
2021/05/06 14:37:34;;;;;;;1.90;1.80;;;13.50;93.60;;;;;;5025820;28;20252;-77
2021/05/06 14:40:00;;;;;;;1.40;1.40;;;13.30;93.60;;;;;;5026200;28;20237;-71
2021/05/06 14:42:29;;;;;;;1.57;1.57;;;13.00;93.90;;;;;;5035249;28;20296;-77
2021/05/06 14:44:55;;;;;;;1.83;1.73;;;12.70;93.80;;;;;;5045729;28;20231;-78
2021/05/06 14:47:21;;;;;;;1.70;1.60;;;12.50;94.40;;;;;;5045814;28;20212;-77
2021/05/06 14:49:47;;;;;;;1.70;1.60;;;12.60;95.00;;;;;;5046474;27;20250;-77
2021/05/06 14:52:15;;;;;;;1.80;1.70;;;12.70;95.00;;;;;;5046068;28;20211;-77
2021/05/06 14:54:41;;;;;;;1.50;1.50;;;12.50;94.60;;;;;;5045780;28;20212;-77
2021/05/06 14:57:07;;;;;;;1.90;1.80;;;12.30;95.10;;;;;;5046048;28;20561;-78
2021/05/06 14:59:33;;;;;;;2.20;1.80;;;12.60;95.20;;;;;;5045103;28;20400;-77
2021/05/06 15:02:00;;;;;;;1.93;1.83;;;12.80;95.20;;;;;;5045833;28;20204;-77
2021/05/06 15:04:26;;;;;;;1.83;1.73;;;13.10;94.20;;;;;;5045969;27;20208;-78
2021/05/06 15:06:53;;;;;;;1.80;1.70;;;13.20;94.30;;;;;;5046021;28;20627;-77
2021/05/06 15:09:21;;;;;;;1.77;1.67;;;13.20;93.90;;;;;;5044796;28;20212;-77
2021/05/06 15:11:48;;;;;;;1.77;1.67;;;13.00;93.90;;;;;;5045651;28;20208;-77
2021/05/06 15:14:14;;;;;;;1.63;1.53;;;12.70;94.30;;;;;;5045594;28;20212;-77
2021/05/06 15:16:40;;;;;;;1.63;1.60;;;12.50;94.60;;;;;;5045896;28;20223;-77
2021/05/06 15:19:06;;;;;;;1.67;1.57;;;12.60;94.80;;;;;;5045486;28;20228;-77
2021/05/06 15:21:32;;;;;;;1.40;1.30;;;13.10;95.00;;;;;;5045472;28;20263;-77
2021/05/06 15:23:58;;;;;;;0.97;0.97;;;13.30;93.40;;;;;;5044984;28;20204;-77
2021/05/06 15:26:25;;;;;;;1.77;1.57;;;13.40;93.20;;;;;;5045622;28;20243;-77
2021/05/06 15:28:52;;;;;;;1.50;1.40;;;13.40;93.00;;;;;;5045488;28;20205;-77
2021/05/06 15:31:19;;;;;;;1.50;1.40;;;13.40;93.30;;;;;;5045303;28;20440;-77